createdAt,value
2024-02-19T00:02:17.868Z,1.10
2024-02-19T00:04:44.755Z,0.80
2024-02-19T00:07:11.627Z,0.70
2024-02-19T00:09:38.401Z,0.57
2024-02-19T00:12:05.540Z,0.40
2024-02-19T00:14:32.273Z,0.52
2024-02-19T00:16:59.054Z,0.70
2024-02-19T00:19:25.791Z,0.40
2024-02-19T00:21:52.624Z,0.60
2024-02-19T00:24:19.301Z,0.52
2024-02-19T00:26:45.960Z,0.57
2024-02-19T00:29:12.600Z,0.40
2024-02-19T00:31:39.292Z,0.52
2024-02-19T00:34:07.773Z,0.40
2024-02-19T00:36:34.644Z,0.28
2024-02-19T00:39:01.298Z,0.40
2024-02-19T00:41:28.414Z,0.30
2024-02-19T00:43:56.360Z,0.50
2024-02-19T00:46:23.116Z,0.60
2024-02-19T00:48:49.882Z,0.32
2024-02-19T00:51:16.600Z,0.30
2024-02-19T00:53:43.232Z,0.30
2024-02-19T00:56:09.889Z,0.47
2024-02-19T00:58:36.546Z,0.40
2024-02-19T01:01:03.296Z,0.30
2024-02-19T01:03:30.101Z,0.22
2024-02-19T01:05:56.878Z,0.30
2024-02-19T01:08:23.896Z,0.40
2024-02-19T01:10:50.698Z,0.50
2024-02-19T01:13:17.641Z,0.40
2024-02-19T01:15:44.435Z,0.40
2024-02-19T01:18:11.251Z,0.38
2024-02-19T01:20:38.131Z,0.45
2024-02-19T01:23:04.808Z,0.20
2024-02-19T01:25:31.467Z,0.20
2024-02-19T01:27:58.846Z,0.30
2024-02-19T01:30:26.049Z,0.30
2024-02-19T01:32:52.815Z,0.25
2024-02-19T01:35:19.644Z,0.30
2024-02-19T01:37:47.199Z,0.30
2024-02-19T01:40:14.091Z,0.20
2024-02-19T01:42:41.071Z,0.40
2024-02-19T01:45:22.581Z,0.20
2024-02-19T01:47:49.315Z,0.30
2024-02-19T01:50:16.005Z,0.30
2024-02-19T01:52:42.737Z,0.20
2024-02-19T01:55:09.455Z,0.20
2024-02-19T01:57:36.231Z,0.20
2024-02-19T02:00:11.537Z,0.20
2024-02-19T02:02:38.664Z,0.20
2024-02-19T02:05:05.895Z,0.25
2024-02-19T02:07:32.641Z,0.20
2024-02-19T02:10:00.779Z,0.20
2024-02-19T02:12:27.426Z,0.10
2024-02-19T02:14:54.068Z,0.20
2024-02-19T02:17:20.707Z,0.20
2024-02-19T02:19:47.655Z,0.10
2024-02-19T02:22:15.043Z,0.10
2024-02-19T02:24:41.966Z,0.10
2024-02-19T02:27:09.427Z,0.40
2024-02-19T02:29:37.396Z,0.10
2024-02-19T02:32:07.126Z,0.20
2024-02-19T02:34:35.594Z,0.20
2024-02-19T02:37:05.038Z,0.20
2024-02-19T02:39:32.067Z,0.20
2024-02-19T02:41:58.767Z,0.30
2024-02-19T02:44:25.744Z,0.10
2024-02-19T02:46:52.432Z,0.30
2024-02-19T02:49:19.402Z,0.30
2024-02-19T02:51:46.189Z,0.20
2024-02-19T02:54:12.861Z,0.30
2024-02-19T02:56:39.530Z,0.20
2024-02-19T02:59:06.192Z,0.30
2024-02-19T03:01:33.393Z,0.50
2024-02-19T03:04:00.313Z,0.30
2024-02-19T03:06:27.198Z,0.38
2024-02-19T03:08:54.079Z,0.30
2024-02-19T03:11:20.841Z,0.50
2024-02-19T03:13:47.574Z,0.40
2024-02-19T03:16:16.876Z,0.40
2024-02-19T03:18:44.630Z,0.47
2024-02-19T03:21:12.290Z,0.20
2024-02-19T03:23:40.497Z,0.40
2024-02-19T03:26:07.937Z,0.40
2024-02-19T03:28:34.610Z,0.28
2024-02-19T03:31:01.384Z,0.38
2024-02-19T03:33:28.298Z,0.43
2024-02-19T03:35:55.035Z,0.30
2024-02-19T03:38:23.266Z,0.30
2024-02-19T03:40:50.133Z,0.50
2024-02-19T03:43:17.032Z,0.35
2024-02-19T03:45:43.818Z,0.50
2024-02-19T03:48:11.418Z,0.50
2024-02-19T03:50:38.105Z,0.40
2024-02-19T03:53:04.979Z,0.60
2024-02-19T03:55:31.762Z,0.40
2024-02-19T03:57:58.518Z,0.40
2024-02-19T04:00:25.210Z,0.60
2024-02-19T04:02:51.887Z,1.17
2024-02-19T04:05:18.537Z,0.60
2024-02-19T04:07:45.237Z,1.38
2024-02-19T04:10:11.915Z,0.70
2024-02-19T04:12:39.591Z,0.50
2024-02-19T04:15:06.830Z,0.35
2024-02-19T04:17:36.663Z,0.57
2024-02-19T04:20:05.314Z,0.60
2024-02-19T04:22:31.956Z,0.60
2024-02-19T04:24:58.714Z,0.70
2024-02-19T04:27:25.384Z,0.75
2024-02-19T04:29:52.077Z,0.60
2024-02-19T04:32:18.727Z,0.70
2024-02-19T04:34:45.433Z,0.50
2024-02-19T04:37:12.113Z,0.65
2024-02-19T04:39:38.822Z,0.40
2024-02-19T04:42:05.832Z,0.50
2024-02-19T04:44:32.562Z,0.55
2024-02-19T04:46:59.260Z,0.68
2024-02-19T04:49:27.626Z,0.60
2024-02-19T04:51:54.417Z,0.55
2024-02-19T04:54:21.905Z,0.60
2024-02-19T04:56:48.574Z,0.60
2024-02-19T04:59:15.301Z,0.50
2024-02-19T05:01:42.067Z,0.30
2024-02-19T05:04:09.149Z,0.60
2024-02-19T05:06:35.960Z,0.70
2024-02-19T05:09:03.594Z,0.70
2024-02-19T05:11:30.917Z,0.40
2024-02-19T05:13:57.653Z,0.52
2024-02-19T05:16:25.133Z,0.88
2024-02-19T05:18:51.978Z,0.70
2024-02-19T05:21:19.357Z,0.73
2024-02-19T05:23:46.205Z,0.68
2024-02-19T05:26:12.888Z,0.50
2024-02-19T05:28:39.560Z,0.70
2024-02-19T05:31:06.925Z,1.02
2024-02-19T05:33:33.662Z,0.55
2024-02-19T05:36:00.744Z,0.65
2024-02-19T05:38:27.441Z,0.55
2024-02-19T05:40:54.103Z,0.60
2024-02-19T05:43:21.210Z,0.50
2024-02-19T05:45:47.999Z,0.68
2024-02-19T05:48:14.756Z,0.80
2024-02-19T05:50:41.471Z,0.60
2024-02-19T05:53:08.942Z,0.63
2024-02-19T05:55:35.698Z,0.52
2024-02-19T05:58:02.394Z,0.52
2024-02-19T06:00:30.390Z,0.70
2024-02-19T06:02:57.304Z,0.50
2024-02-19T06:05:24.324Z,0.40
2024-02-19T06:07:51.321Z,0.80
2024-02-19T06:10:18.271Z,0.68
2024-02-19T06:12:45.142Z,1.17
2024-02-19T06:15:11.822Z,0.60
2024-02-19T06:17:38.573Z,0.90
2024-02-19T06:20:05.712Z,0.93
2024-02-19T06:22:32.501Z,0.80
2024-02-19T06:24:59.336Z,1.02
2024-02-19T06:27:26.075Z,0.90
2024-02-19T06:29:52.767Z,1.00
2024-02-19T06:32:19.469Z,0.70
2024-02-19T06:34:46.277Z,0.60
2024-02-19T06:37:13.167Z,0.70
2024-02-19T06:39:42.055Z,0.73
2024-02-19T06:42:08.756Z,0.63
2024-02-19T06:44:35.461Z,0.50
2024-02-19T06:47:02.236Z,0.60
2024-02-19T06:49:29.193Z,0.47
2024-02-19T06:51:55.950Z,0.57
2024-02-19T06:54:22.656Z,0.80
2024-02-19T06:56:49.651Z,0.70
2024-02-19T06:59:16.311Z,0.80
2024-02-19T07:01:43.052Z,0.70
2024-02-19T07:04:10.989Z,0.50
2024-02-19T07:06:38.372Z,0.57
2024-02-19T07:09:05.147Z,1.10
2024-02-19T07:11:32.011Z,0.60
2024-02-19T07:13:58.694Z,0.80
2024-02-19T07:16:25.547Z,0.60
2024-02-19T07:18:52.442Z,1.58
2024-02-19T07:21:19.296Z,0.75
2024-02-19T07:23:46.029Z,0.85
2024-02-19T07:26:12.820Z,0.50
2024-02-19T07:28:39.549Z,0.52
2024-02-19T07:31:06.347Z,0.85
2024-02-19T07:33:34.925Z,0.70
2024-02-19T07:36:01.622Z,0.50
2024-02-19T07:38:28.329Z,0.60
2024-02-19T07:40:54.973Z,0.40
2024-02-19T07:43:21.635Z,0.50
2024-02-19T07:45:48.415Z,0.40
2024-02-19T07:48:15.129Z,0.50
2024-02-19T07:50:42.697Z,0.75
2024-02-19T07:53:09.356Z,0.40
2024-02-19T07:55:36.838Z,0.60
2024-02-19T07:58:03.570Z,0.65
2024-02-19T08:00:30.269Z,0.60
2024-02-19T08:02:56.974Z,0.70
2024-02-19T08:05:23.802Z,0.63
2024-02-19T08:07:51.170Z,0.60
2024-02-19T08:10:17.987Z,0.52
2024-02-19T08:12:45.005Z,1.52
2024-02-19T08:15:11.935Z,0.70
2024-02-19T08:17:38.786Z,0.52
2024-02-19T08:20:06.297Z,0.40
2024-02-19T08:22:33.070Z,0.73
2024-02-19T08:24:59.827Z,0.65
2024-02-19T08:27:28.726Z,0.70
2024-02-19T08:29:55.466Z,1.42
2024-02-19T08:32:22.164Z,0.60
2024-02-19T08:34:48.920Z,0.70
2024-02-19T08:37:19.469Z,0.85
2024-02-19T08:39:47.546Z,0.60
2024-02-19T08:42:14.279Z,1.00
2024-02-19T08:44:40.926Z,1.35
2024-02-19T08:47:09.106Z,2.17
2024-02-19T08:49:36.052Z,0.82
2024-02-19T08:52:03.268Z,0.63
2024-02-19T08:54:30.170Z,0.60
2024-02-19T08:56:56.927Z,0.60
2024-02-19T08:59:23.580Z,0.93
2024-02-19T09:01:50.352Z,0.60
2024-02-19T09:04:17.205Z,0.50
2024-02-19T09:06:44.558Z,0.40
2024-02-19T09:09:11.584Z,0.60
2024-02-19T09:11:38.312Z,0.88
2024-02-19T09:14:05.549Z,1.90
2024-02-19T09:16:35.310Z,1.10
2024-02-19T09:19:06.761Z,0.77
2024-02-19T09:21:34.001Z,0.90
2024-02-19T09:24:00.695Z,0.70
2024-02-19T09:26:27.352Z,0.90
2024-02-19T09:28:53.993Z,0.80
2024-02-19T09:31:24.284Z,0.80
2024-02-19T09:33:51.190Z,1.15
2024-02-19T09:36:18.199Z,1.10
2024-02-19T09:38:46.321Z,1.02
2024-02-19T09:41:13.027Z,1.10
2024-02-19T09:43:40.461Z,0.95
2024-02-19T09:46:10.556Z,1.15
2024-02-19T09:48:37.372Z,1.45
2024-02-19T09:51:04.478Z,9.18
2024-02-19T09:53:33.987Z,1.60
2024-02-19T09:56:00.743Z,1.08
2024-02-19T09:58:27.526Z,1.17
2024-02-19T10:00:54.403Z,1.52
2024-02-19T10:03:21.173Z,1.52
2024-02-19T10:05:49.090Z,1.45
2024-02-19T10:08:17.055Z,1.13
2024-02-19T10:10:46.618Z,1.73
2024-02-19T10:13:14.128Z,1.00
2024-02-19T10:15:40.851Z,3.17
2024-02-19T10:18:15.940Z,3.78
2024-02-19T10:23:14.811Z,3.38
2024-02-19T10:25:42.103Z,2.72
2024-02-19T10:28:09.561Z,1.88
2024-02-19T10:30:36.779Z,3.30
2024-02-19T10:33:03.710Z,1.40
2024-02-19T10:35:31.937Z,1.83
2024-02-19T10:38:00.672Z,2.58
2024-02-19T10:40:27.961Z,1.63
2024-02-19T10:42:54.705Z,2.90
2024-02-19T10:45:22.556Z,2.15
2024-02-19T10:47:58.472Z,1.00
2024-02-19T10:50:25.192Z,1.20
2024-02-19T10:52:52.645Z,0.95
2024-02-19T10:57:55.914Z,1.00
2024-02-19T11:00:26.723Z,1.25
2024-02-19T11:03:06.158Z,1.30
2024-02-19T11:05:36.372Z,1.30
2024-02-19T11:08:03.062Z,2.45
2024-02-19T11:10:42.386Z,1.20
2024-02-19T11:13:09.622Z,1.70
2024-02-19T11:15:43.300Z,1.70
2024-02-19T11:18:11.434Z,1.98
2024-02-19T11:20:39.067Z,1.52
2024-02-19T11:23:05.751Z,1.63
2024-02-19T11:25:32.562Z,2.13
2024-02-19T11:28:00.012Z,1.52
2024-02-19T11:30:27.121Z,1.58
2024-02-19T11:33:03.500Z,1.70
2024-02-19T11:35:33.404Z,1.83
2024-02-19T11:38:02.296Z,2.17
2024-02-19T11:40:32.676Z,2.15
2024-02-19T11:43:00.940Z,1.90
2024-02-19T11:45:28.669Z,2.30
2024-02-19T11:47:55.488Z,3.78
2024-02-19T11:50:26.378Z,2.67
2024-02-19T11:52:55.126Z,2.95
2024-02-19T11:55:22.546Z,2.53
2024-02-19T11:57:49.403Z,2.42
2024-02-19T12:00:16.318Z,2.15
2024-02-19T12:02:46.987Z,2.63
2024-02-19T12:05:13.955Z,2.65
2024-02-19T12:07:40.842Z,2.90
2024-02-19T12:10:10.363Z,3.33
2024-02-19T12:12:40.663Z,3.08
2024-02-19T12:15:16.457Z,3.00
2024-02-19T12:17:44.175Z,2.65
2024-02-19T12:20:14.152Z,3.15
2024-02-19T12:22:44.073Z,3.03
2024-02-19T12:25:11.868Z,3.35
2024-02-19T12:27:38.583Z,2.72
2024-02-19T12:30:06.534Z,2.90
2024-02-19T12:32:33.356Z,3.33
2024-02-19T12:35:00.371Z,3.30
2024-02-19T12:37:28.261Z,4.63
2024-02-19T12:39:54.992Z,3.22
2024-02-19T12:42:23.233Z,3.83
2024-02-19T12:44:49.905Z,5.85
2024-02-19T12:47:16.597Z,4.28
2024-02-19T12:49:43.428Z,5.22
2024-02-19T12:52:11.391Z,5.97
2024-02-19T12:54:38.291Z,4.32
2024-02-19T12:57:06.967Z,3.88
2024-02-19T12:59:33.706Z,3.63
2024-02-19T13:02:00.622Z,3.38
2024-02-19T13:04:28.139Z,2.83
2024-02-19T13:06:57.060Z,2.40
2024-02-19T13:09:25.945Z,2.65
2024-02-19T13:11:52.716Z,2.22
2024-02-19T13:14:19.464Z,4.10
2024-02-19T13:16:52.097Z,9.70
2024-02-19T13:19:21.795Z,6.25
2024-02-19T13:21:48.632Z,3.45
2024-02-19T13:24:15.604Z,3.83
2024-02-19T13:26:42.272Z,3.05
2024-02-19T13:29:09.788Z,3.70
2024-02-19T13:31:43.177Z,2.65
2024-02-19T13:34:10.380Z,3.17
2024-02-19T13:36:38.525Z,3.97
2024-02-19T13:39:07.321Z,3.45
2024-02-19T13:41:34.183Z,3.42
2024-02-19T13:44:00.871Z,4.20
2024-02-19T13:46:27.738Z,3.55
2024-02-19T13:49:00.876Z,2.65
2024-02-19T13:51:27.992Z,3.63
2024-02-19T13:53:54.871Z,4.53
2024-02-19T13:56:21.533Z,2.78
2024-02-19T13:58:48.530Z,4.53
2024-02-19T14:01:15.549Z,3.65
2024-02-19T14:03:42.380Z,3.50
2024-02-19T14:06:09.256Z,3.30
2024-02-19T14:08:35.989Z,3.42
2024-02-19T14:11:02.704Z,3.30
2024-02-19T14:13:29.801Z,2.90
2024-02-19T14:15:57.332Z,2.70
2024-02-19T14:18:26.267Z,3.45
2024-02-19T14:20:53.051Z,3.40
2024-02-19T14:23:19.792Z,4.25
2024-02-19T14:25:50.491Z,3.25
2024-02-19T14:28:17.621Z,3.08
2024-02-19T14:30:44.477Z,3.00
2024-02-19T14:33:11.354Z,2.40
2024-02-19T14:35:38.839Z,2.80
2024-02-19T14:38:07.695Z,2.58
2024-02-19T14:40:36.499Z,2.40
2024-02-19T14:43:03.229Z,2.45
2024-02-19T14:45:30.053Z,2.83
2024-02-19T14:47:56.809Z,2.67
2024-02-19T14:50:23.694Z,2.80
2024-02-19T14:52:50.769Z,2.38
2024-02-19T14:55:17.712Z,2.45
2024-02-19T14:57:46.452Z,3.47
2024-02-19T15:00:18.189Z,2.42
2024-02-19T15:02:45.946Z,5.10
2024-02-19T15:05:12.917Z,2.90
2024-02-19T15:07:42.687Z,2.75
2024-02-19T15:10:10.262Z,2.47
2024-02-19T15:12:37.339Z,2.63
2024-02-19T15:15:07.055Z,2.60
2024-02-19T15:17:35.065Z,3.17
2024-02-19T15:20:02.701Z,2.80
2024-02-19T15:22:29.514Z,4.00
2024-02-19T15:24:56.280Z,3.50
2024-02-19T15:27:27.179Z,2.80
2024-02-19T15:29:54.727Z,2.95
2024-02-19T15:32:23.457Z,2.78
2024-02-19T15:34:51.038Z,3.35
2024-02-19T15:37:18.747Z,2.70
2024-02-19T15:39:45.684Z,2.70
2024-02-19T15:42:12.578Z,2.50
2024-02-19T15:44:39.296Z,2.83
2024-02-19T15:47:06.486Z,3.72
2024-02-19T15:49:33.360Z,3.70
2024-02-19T15:52:00.552Z,3.60
2024-02-19T15:54:29.266Z,3.53
2024-02-19T15:56:55.961Z,3.17
2024-02-19T15:59:22.691Z,4.00
2024-02-19T16:01:49.511Z,3.92
2024-02-19T16:04:16.409Z,4.05
2024-02-19T16:06:44.145Z,3.47
2024-02-19T16:09:12.511Z,3.80
2024-02-19T16:11:39.470Z,4.65
2024-02-19T16:14:06.598Z,4.35
2024-02-19T16:16:33.635Z,3.80
2024-02-19T16:19:02.083Z,6.70
2024-02-19T16:21:28.984Z,3.35
2024-02-19T16:23:55.926Z,3.47
2024-02-19T16:26:22.770Z,4.57
2024-02-19T16:28:51.082Z,3.95
2024-02-19T16:31:20.704Z,3.45
2024-02-19T16:33:47.728Z,5.50
2024-02-19T16:36:14.496Z,5.45
2024-02-19T16:38:43.996Z,9.75
2024-02-19T16:41:10.694Z,13.45
2024-02-19T16:43:37.505Z,8.45
2024-02-19T16:46:04.610Z,10.75
2024-02-19T16:48:38.074Z,8.32
2024-02-19T16:51:10.061Z,4.68
2024-02-19T16:53:36.711Z,28.65
2024-02-19T16:56:03.753Z,6.03
2024-02-19T16:58:33.468Z,6.35
2024-02-19T17:01:03.347Z,9.75
2024-02-19T17:03:30.551Z,5.93
2024-02-19T17:05:57.781Z,7.05
2024-02-19T17:08:28.139Z,5.97
2024-02-19T17:10:56.000Z,6.28
2024-02-19T17:13:23.370Z,8.55
2024-02-19T17:15:50.173Z,6.72
2024-02-19T17:18:17.747Z,5.93
2024-02-19T17:20:44.659Z,5.00
2024-02-19T17:23:18.981Z,9.70
2024-02-19T17:25:48.957Z,4.88
2024-02-19T17:28:16.595Z,5.75
2024-02-19T17:30:45.129Z,4.57
2024-02-19T17:33:12.043Z,5.13
2024-02-19T17:35:41.656Z,5.78
2024-02-19T17:38:10.910Z,5.70
2024-02-19T17:40:37.910Z,5.63
2024-02-19T17:43:05.662Z,6.78
2024-02-19T17:45:32.530Z,5.97
2024-02-19T17:47:59.395Z,5.82
2024-02-19T17:50:26.259Z,5.03
2024-02-19T17:52:52.954Z,5.43
2024-02-19T17:55:19.629Z,5.47
2024-02-19T17:57:48.577Z,4.95
2024-02-19T18:00:15.611Z,4.80
2024-02-19T18:02:42.266Z,5.50
2024-02-19T18:05:09.224Z,4.18
2024-02-19T18:07:36.057Z,4.80
2024-02-19T18:10:04.855Z,4.30
2024-02-19T18:12:32.227Z,4.25
2024-02-19T18:14:59.904Z,5.75
2024-02-19T18:17:27.631Z,7.78
2024-02-19T18:19:55.539Z,6.50
2024-02-19T18:22:22.800Z,4.97
2024-02-19T18:24:51.661Z,4.80
2024-02-19T18:27:18.720Z,5.30
2024-02-19T18:29:45.468Z,6.40
2024-02-19T18:32:14.035Z,7.20
2024-02-19T18:34:42.326Z,7.45
2024-02-19T18:37:09.344Z,6.65
2024-02-19T18:39:36.093Z,7.63
2024-02-19T18:42:04.677Z,6.65
2024-02-19T18:44:31.572Z,7.30
2024-02-19T18:47:01.371Z,7.95
2024-02-19T18:49:32.627Z,8.82
2024-02-19T18:52:00.096Z,12.10
2024-02-19T18:54:32.284Z,9.82
2024-02-19T18:57:03.355Z,7.55
2024-02-19T18:59:31.672Z,8.13
2024-02-19T19:01:59.100Z,6.60
2024-02-19T19:04:25.983Z,7.50
2024-02-19T19:06:52.887Z,7.90
2024-02-19T19:09:19.608Z,8.32
2024-02-19T19:11:46.284Z,7.60
2024-02-19T19:14:15.983Z,8.52
2024-02-19T19:16:43.078Z,7.18
2024-02-19T19:19:10.042Z,7.35
2024-02-19T19:21:38.877Z,6.35
2024-02-19T19:24:07.522Z,6.40
2024-02-19T19:26:35.206Z,7.55
2024-02-19T19:29:02.356Z,9.65
2024-02-19T19:31:29.260Z,7.13
2024-02-19T19:33:56.361Z,7.68
2024-02-19T19:36:23.136Z,6.15
2024-02-19T19:38:51.180Z,6.10
2024-02-19T19:41:17.844Z,6.18
2024-02-19T19:43:44.527Z,6.97
2024-02-19T19:46:12.632Z,8.07
2024-02-19T19:48:39.505Z,8.63
2024-02-19T19:51:06.230Z,7.60
2024-02-19T19:53:32.923Z,6.88
2024-02-19T19:55:59.773Z,7.10
2024-02-19T19:58:32.060Z,8.25
2024-02-19T20:01:00.370Z,7.70
2024-02-19T20:03:27.383Z,9.68
2024-02-19T20:05:54.373Z,7.78
2024-02-19T20:08:21.331Z,6.88
2024-02-19T20:10:48.418Z,5.60
2024-02-19T20:13:15.559Z,7.18
2024-02-19T20:15:42.503Z,6.47
2024-02-19T20:18:10.025Z,5.40
2024-02-19T20:20:37.031Z,5.13
2024-02-19T20:23:03.968Z,5.30
2024-02-19T20:25:31.579Z,5.95
2024-02-19T20:28:05.409Z,4.53
2024-02-19T20:30:32.244Z,4.50
2024-02-19T20:32:59.030Z,5.32
2024-02-19T20:35:27.034Z,6.15
2024-02-19T20:37:53.833Z,5.72
2024-02-19T20:40:20.593Z,6.40
2024-02-19T20:42:53.241Z,8.32
2024-02-19T20:45:20.064Z,8.07
2024-02-19T20:47:46.929Z,10.00
2024-02-19T20:50:14.484Z,10.07
2024-02-19T20:52:46.334Z,15.35
2024-02-19T20:55:13.380Z,11.88
2024-02-19T20:57:40.450Z,8.85
2024-02-19T21:00:07.809Z,9.75
2024-02-19T21:02:34.589Z,9.55
2024-02-19T21:05:01.572Z,10.90
2024-02-19T21:07:28.869Z,11.30
2024-02-19T21:09:58.273Z,13.63
2024-02-19T21:12:25.196Z,10.68
2024-02-19T21:14:51.870Z,17.23
2024-02-19T21:17:18.555Z,18.95
2024-02-19T21:19:45.326Z,16.50
2024-02-19T21:22:12.318Z,15.27
2024-02-19T21:24:39.260Z,29.60
2024-02-19T21:27:06.076Z,32.35
2024-02-19T21:29:32.745Z,33.92
2024-02-19T21:31:59.457Z,25.27
2024-02-19T21:34:26.366Z,15.77
2024-02-19T21:36:57.226Z,20.80
2024-02-19T21:39:24.009Z,16.20
2024-02-19T21:41:50.788Z,22.90
2024-02-19T21:44:17.457Z,26.00
2024-02-19T21:46:44.214Z,30.85
2024-02-19T21:49:11.064Z,24.83
2024-02-19T21:51:41.740Z,25.08
2024-02-19T21:54:09.057Z,17.85
2024-02-19T21:56:35.835Z,19.17
2024-02-19T21:59:02.557Z,22.02
2024-02-19T22:01:30.037Z,14.07
2024-02-19T22:03:57.398Z,19.05
2024-02-19T22:06:24.465Z,10.35
2024-02-19T22:08:52.416Z,15.32
2024-02-19T22:11:20.801Z,10.00
2024-02-19T22:13:50.783Z,9.02
2024-02-19T22:16:17.560Z,8.63
2024-02-19T22:18:45.373Z,8.40
2024-02-19T22:21:12.300Z,7.13
2024-02-19T22:23:39.270Z,7.78
2024-02-19T22:26:05.935Z,8.43
2024-02-19T22:28:32.690Z,10.05
2024-02-19T22:30:59.512Z,8.43
2024-02-19T22:33:29.201Z,6.20
2024-02-19T22:35:55.869Z,6.75
2024-02-19T22:38:22.525Z,6.15
2024-02-19T22:40:49.229Z,6.38
2024-02-19T22:43:16.006Z,6.03
2024-02-19T22:45:42.661Z,6.85
2024-02-19T22:48:12.221Z,5.78
2024-02-19T22:50:39.239Z,5.43
2024-02-19T22:53:06.094Z,5.75
2024-02-19T22:55:33.002Z,5.93
2024-02-19T22:57:59.849Z,5.95
2024-02-19T23:00:40.800Z,5.50
2024-02-19T23:03:07.656Z,5.70
2024-02-19T23:05:34.490Z,6.05
2024-02-19T23:08:01.810Z,5.80
2024-02-19T23:10:28.905Z,6.32
2024-02-19T23:12:55.630Z,6.20
2024-02-19T23:15:28.295Z,6.25
2024-02-19T23:17:55.246Z,6.22
2024-02-19T23:20:22.130Z,5.82
2024-02-19T23:22:48.928Z,5.35
2024-02-19T23:25:15.792Z,5.93
2024-02-19T23:27:42.509Z,5.90
2024-02-19T23:30:09.498Z,5.60
2024-02-19T23:32:37.004Z,5.93
2024-02-19T23:35:05.377Z,6.00
2024-02-19T23:37:32.933Z,5.80
2024-02-19T23:39:59.936Z,5.53
2024-02-19T23:42:27.315Z,5.63
2024-02-19T23:44:54.080Z,5.43
2024-02-19T23:47:20.836Z,5.75
2024-02-19T23:49:47.867Z,4.82
2024-02-19T23:52:14.773Z,5.30
2024-02-19T23:54:41.707Z,4.80
2024-02-19T23:57:08.734Z,5.25
2024-02-19T23:59:35.550Z,4.78
